createdAt,value
2022-12-31T00:00:03.116Z,11.82
2022-12-31T00:02:32.741Z,8.73
2022-12-31T00:05:00.321Z,15.77
2022-12-31T00:07:27.960Z,16.70
2022-12-31T00:09:55.383Z,11.85
2022-12-31T00:12:22.895Z,13.55
2022-12-31T00:14:50.395Z,15.63
2022-12-31T00:17:17.788Z,20.08
2022-12-31T00:19:45.283Z,21.30
2022-12-31T00:22:12.862Z,15.70
2022-12-31T00:24:40.322Z,17.35
2022-12-31T00:27:07.750Z,17.85
2022-12-31T00:29:35.152Z,19.17
2022-12-31T00:32:02.559Z,18.37
2022-12-31T00:34:30.149Z,16.07
2022-12-31T00:36:57.758Z,17.77
2022-12-31T00:39:25.232Z,19.45
2022-12-31T00:41:52.843Z,18.40
2022-12-31T00:44:20.483Z,22.42
2022-12-31T00:46:48.388Z,17.20
2022-12-31T00:49:16.440Z,19.38
2022-12-31T00:51:43.881Z,19.65
2022-12-31T00:54:11.299Z,17.75
2022-12-31T00:56:39.163Z,18.75
2022-12-31T00:59:06.554Z,16.25
2022-12-31T01:01:36.894Z,16.87
2022-12-31T01:04:07.911Z,18.70
2022-12-31T01:06:35.661Z,14.38
2022-12-31T01:09:04.816Z,21.75
2022-12-31T01:11:32.459Z,19.52
2022-12-31T01:14:07.890Z,16.02
2022-12-31T01:16:38.947Z,16.88
2022-12-31T01:19:09.269Z,21.50
2022-12-31T01:21:38.703Z,25.15
2022-12-31T01:24:07.595Z,20.67
2022-12-31T01:26:35.823Z,20.13
2022-12-31T01:31:31.209Z,17.52
2022-12-31T01:33:58.735Z,19.95
2022-12-31T01:36:29.195Z,18.52
2022-12-31T01:38:59.080Z,20.30
2022-12-31T01:41:29.792Z,26.30
2022-12-31T01:44:03.809Z,22.48
2022-12-31T01:46:46.285Z,22.33
2022-12-31T01:49:21.403Z,23.17
2022-12-31T01:51:53.553Z,19.30
2022-12-31T01:54:23.030Z,21.35
2022-12-31T01:56:53.600Z,21.02
2022-12-31T01:59:22.395Z,20.63
2022-12-31T02:01:53.781Z,22.00
2022-12-31T02:04:24.726Z,20.77
2022-12-31T02:06:57.358Z,23.80
2022-12-31T02:09:24.843Z,24.25
2022-12-31T02:11:52.353Z,20.48
2022-12-31T02:14:56.850Z,16.90
2022-12-31T02:17:34.296Z,17.95
2022-12-31T02:20:24.220Z,19.33
2022-12-31T02:23:19.725Z,14.75
2022-12-31T02:26:11.938Z,14.60
2022-12-31T02:28:56.974Z,21.13
2022-12-31T02:31:39.376Z,15.73
2022-12-31T02:34:13.954Z,20.13
2022-12-31T02:36:47.389Z,15.63
2022-12-31T02:39:15.788Z,14.10
2022-12-31T02:41:52.288Z,13.95
2022-12-31T02:44:32.936Z,14.95
2022-12-31T02:47:09.049Z,11.23
2022-12-31T02:49:53.162Z,13.88
2022-12-31T02:52:54.426Z,13.27
2022-12-31T02:55:39.927Z,15.77
2022-12-31T02:58:45.694Z,17.17
2022-12-31T03:01:35.298Z,14.32
2022-12-31T03:04:24.076Z,10.35
2022-12-31T03:06:52.915Z,12.35
2022-12-31T03:09:20.514Z,13.23
2022-12-31T03:12:06.848Z,15.98
2022-12-31T03:14:34.302Z,7.63
2022-12-31T03:17:01.737Z,7.35
2022-12-31T03:19:47.799Z,7.93
2022-12-31T03:22:27.653Z,5.93
2022-12-31T03:25:33.290Z,6.10
2022-12-31T03:28:03.283Z,5.25
2022-12-31T03:30:32.422Z,6.35
2022-12-31T03:33:00.135Z,6.47
2022-12-31T03:35:29.522Z,3.97
2022-12-31T03:37:57.822Z,4.18
2022-12-31T03:40:27.265Z,5.22
2022-12-31T03:42:55.102Z,2.80
2022-12-31T03:45:22.673Z,1.42
2022-12-31T03:47:50.430Z,0.38
2022-12-31T03:50:19.155Z,1.05
2022-12-31T03:52:46.853Z,2.92
2022-12-31T03:55:14.757Z,0.90
2022-12-31T03:57:42.322Z,1.50
2022-12-31T04:00:13.797Z,1.17
2022-12-31T04:02:41.922Z,1.15
2022-12-31T04:05:10.740Z,0.40
2022-12-31T04:07:39.048Z,0.10
2022-12-31T04:12:35.182Z,1.85
2022-12-31T04:15:02.877Z,2.13
2022-12-31T04:17:30.701Z,0.90
2022-12-31T04:19:58.136Z,2.00
2022-12-31T04:22:25.791Z,2.47
2022-12-31T04:24:53.186Z,1.73
2022-12-31T04:27:20.590Z,1.20
2022-12-31T04:29:48.000Z,0.90
2022-12-31T04:32:15.720Z,2.53
2022-12-31T04:34:43.123Z,3.53
2022-12-31T04:37:10.649Z,3.55
2022-12-31T04:39:38.039Z,3.70
2022-12-31T04:42:05.446Z,1.27
2022-12-31T04:44:34.898Z,3.40
2022-12-31T04:47:02.366Z,3.63
2022-12-31T04:49:29.808Z,4.75
2022-12-31T04:51:57.297Z,4.37
2022-12-31T04:54:24.775Z,7.88
2022-12-31T04:56:52.380Z,9.73
2022-12-31T04:59:20.055Z,17.88
2022-12-31T05:01:47.664Z,21.27
2022-12-31T05:04:15.192Z,17.98
2022-12-31T05:06:42.882Z,24.20
2022-12-31T05:09:10.363Z,21.63
2022-12-31T05:11:38.119Z,24.35
2022-12-31T05:14:05.728Z,19.55
2022-12-31T05:16:33.300Z,19.00
2022-12-31T05:19:00.797Z,20.85
2022-12-31T05:21:28.253Z,22.50
2022-12-31T05:23:55.701Z,22.05
2022-12-31T05:26:23.095Z,20.90
2022-12-31T05:28:50.496Z,21.75
2022-12-31T05:31:18.139Z,19.88
2022-12-31T05:33:45.536Z,19.13
2022-12-31T05:36:13.155Z,19.45
2022-12-31T05:38:40.560Z,17.58
2022-12-31T05:41:10.902Z,20.27
2022-12-31T05:43:38.329Z,17.77
2022-12-31T05:46:06.115Z,17.50
2022-12-31T05:48:33.626Z,13.68
2022-12-31T05:51:01.055Z,10.73
2022-12-31T05:53:28.543Z,15.60
2022-12-31T05:55:55.961Z,14.75
2022-12-31T05:58:23.418Z,14.40
2022-12-31T06:00:52.273Z,16.98
2022-12-31T06:03:19.739Z,15.90
2022-12-31T06:05:47.212Z,16.27
2022-12-31T06:08:14.682Z,18.70
2022-12-31T06:10:42.489Z,18.63
2022-12-31T06:13:09.968Z,18.58
2022-12-31T06:15:39.679Z,14.70
2022-12-31T06:18:07.556Z,21.02
2022-12-31T06:20:38.452Z,22.20
2022-12-31T06:23:06.029Z,29.77
2022-12-31T06:25:35.378Z,23.65
2022-12-31T06:28:04.169Z,29.08
2022-12-31T06:30:31.727Z,26.15
2022-12-31T06:32:59.147Z,19.67
2022-12-31T06:35:26.562Z,29.75
2022-12-31T06:37:54.003Z,32.50
2022-12-31T06:40:21.426Z,34.92
2022-12-31T06:42:49.877Z,30.08
2022-12-31T06:45:20.033Z,27.88
2022-12-31T06:47:47.493Z,25.60
2022-12-31T06:50:16.956Z,21.25
2022-12-31T06:52:44.381Z,31.13
2022-12-31T06:55:12.497Z,26.98
2022-12-31T06:57:40.195Z,25.25
2022-12-31T07:00:08.190Z,28.48
2022-12-31T07:03:22.048Z,27.25
2022-12-31T07:06:20.926Z,24.15
2022-12-31T07:09:06.958Z,28.10
2022-12-31T07:12:04.036Z,30.00
2022-12-31T07:14:43.472Z,26.30
2022-12-31T07:17:46.515Z,20.38
2022-12-31T07:20:17.004Z,23.33
2022-12-31T07:22:45.951Z,24.30
2022-12-31T07:25:18.083Z,20.67
2022-12-31T07:28:10.311Z,20.67
2022-12-31T07:30:54.140Z,23.13
2022-12-31T07:33:37.516Z,22.73
2022-12-31T07:36:37.783Z,23.88
2022-12-31T07:39:22.064Z,22.67
2022-12-31T07:41:52.673Z,26.23
2022-12-31T07:44:51.620Z,22.63
2022-12-31T07:47:24.937Z,38.75
2022-12-31T07:49:53.497Z,35.83
2022-12-31T07:52:21.871Z,28.00
2022-12-31T07:54:49.390Z,32.67
2022-12-31T07:57:19.264Z,33.72
2022-12-31T07:59:58.564Z,32.78
2022-12-31T08:02:34.915Z,32.53
2022-12-31T08:05:23.942Z,30.40
2022-12-31T08:08:18.373Z,29.50
2022-12-31T08:10:59.224Z,28.70
2022-12-31T08:13:27.857Z,22.45
2022-12-31T08:18:22.907Z,26.77
2022-12-31T08:21:04.725Z,32.63
2022-12-31T08:23:52.157Z,31.27
2022-12-31T08:26:36.454Z,33.65
2022-12-31T08:29:23.739Z,31.13
2022-12-31T08:31:51.137Z,31.48
2022-12-31T08:34:38.927Z,37.97
2022-12-31T08:37:17.023Z,37.33
2022-12-31T08:40:10.330Z,37.00
2022-12-31T08:43:19.634Z,32.33
2022-12-31T08:45:49.799Z,42.72
2022-12-31T08:48:17.382Z,30.83
2022-12-31T08:50:44.964Z,30.77
2022-12-31T08:53:12.583Z,32.00
2022-12-31T08:55:43.012Z,33.05
2022-12-31T08:58:39.280Z,28.42
2022-12-31T09:01:08.439Z,35.72
2022-12-31T09:03:51.606Z,34.13
2022-12-31T09:06:23.035Z,42.55
2022-12-31T09:09:10.555Z,30.25
2022-12-31T09:11:59.617Z,34.05
2022-12-31T09:14:30.037Z,44.95
2022-12-31T09:17:08.648Z,34.10
2022-12-31T09:19:36.168Z,40.85
2022-12-31T09:22:03.916Z,36.92
2022-12-31T09:24:31.829Z,39.88
2022-12-31T09:27:33.738Z,38.85
2022-12-31T09:30:11.780Z,37.85
2022-12-31T09:35:46.625Z,34.72
2022-12-31T09:38:54.915Z,40.20
2022-12-31T09:42:00.654Z,31.98
2022-12-31T09:45:05.686Z,37.53
2022-12-31T09:47:53.885Z,30.42
2022-12-31T09:50:27.333Z,31.55
2022-12-31T09:53:16.943Z,29.75
2022-12-31T09:55:57.035Z,37.38
2022-12-31T09:58:36.471Z,30.92
2022-12-31T10:01:27.908Z,34.33
2022-12-31T10:04:17.312Z,29.38
2022-12-31T10:06:53.974Z,23.42
2022-12-31T10:10:00.823Z,27.10
2022-12-31T10:12:54.946Z,19.37
2022-12-31T10:15:38.625Z,26.23
2022-12-31T10:18:47.723Z,17.60
2022-12-31T10:21:57.885Z,15.85
2022-12-31T10:25:00.218Z,14.38
2022-12-31T10:27:47.890Z,18.45
2022-12-31T10:30:17.327Z,12.38
2022-12-31T10:32:54.796Z,12.90
2022-12-31T10:35:50.032Z,12.82
2022-12-31T10:38:30.319Z,18.33
2022-12-31T10:41:28.809Z,13.15
2022-12-31T10:44:14.542Z,10.38
2022-12-31T10:47:07.043Z,7.55
2022-12-31T10:49:58.329Z,7.57
2022-12-31T10:53:10.890Z,11.48
2022-12-31T10:55:41.308Z,6.40
2022-12-31T10:58:26.503Z,6.85
2022-12-31T11:01:16.396Z,7.97
2022-12-31T11:04:08.651Z,12.60
2022-12-31T11:07:00.262Z,8.57
2022-12-31T11:09:34.538Z,6.10
2022-12-31T11:12:31.011Z,4.20
2022-12-31T11:15:20.915Z,5.55
2022-12-31T11:18:26.865Z,4.32
2022-12-31T11:21:22.818Z,4.03
2022-12-31T11:24:25.711Z,4.07
2022-12-31T11:27:15.824Z,3.60
2022-12-31T11:30:01.641Z,2.88
2022-12-31T11:32:53.654Z,2.25
2022-12-31T11:35:41.887Z,2.47
2022-12-31T11:38:18.383Z,3.13
2022-12-31T11:41:03.959Z,1.75
2022-12-31T11:43:31.386Z,3.35
2022-12-31T11:46:20.321Z,2.00
2022-12-31T11:49:09.540Z,3.17
2022-12-31T11:51:59.974Z,3.00
2022-12-31T11:54:49.728Z,2.05
2022-12-31T11:57:37.828Z,1.65
2022-12-31T12:00:25.080Z,5.63
2022-12-31T12:02:58.803Z,10.35
2022-12-31T12:05:26.722Z,14.50
2022-12-31T12:07:54.998Z,13.65
2022-12-31T12:13:01.012Z,24.77
2022-12-31T12:15:34.939Z,29.27
2022-12-31T12:18:09.583Z,26.38
2022-12-31T12:20:38.788Z,31.10
2022-12-31T12:23:21.790Z,30.30
2022-12-31T12:25:49.267Z,33.25
2022-12-31T12:28:31.030Z,27.02
2022-12-31T12:31:01.987Z,23.48
2022-12-31T12:33:40.596Z,24.65
2022-12-31T12:36:14.437Z,23.20
2022-12-31T12:38:43.028Z,24.27
2022-12-31T12:41:18.766Z,18.77
2022-12-31T12:43:46.447Z,25.50
2022-12-31T12:46:31.058Z,27.88
2022-12-31T12:48:59.212Z,26.83
2022-12-31T12:52:02.438Z,33.97
2022-12-31T12:54:57.255Z,25.38
2022-12-31T12:57:39.756Z,27.92
2022-12-31T13:00:22.044Z,26.58
2022-12-31T13:03:12.862Z,26.50
2022-12-31T13:05:58.197Z,26.63
2022-12-31T13:08:48.546Z,23.00
2022-12-31T13:11:38.807Z,23.33
2022-12-31T13:14:23.379Z,28.88
2022-12-31T13:16:53.872Z,33.38
2022-12-31T13:19:42.244Z,34.47
2022-12-31T13:22:37.820Z,35.42
2022-12-31T13:25:24.028Z,25.40
2022-12-31T13:27:54.126Z,35.85
2022-12-31T13:30:23.805Z,36.33
2022-12-31T13:33:15.290Z,41.47
2022-12-31T13:35:48.597Z,33.38
2022-12-31T13:38:26.728Z,35.38
2022-12-31T13:40:57.280Z,29.48
2022-12-31T13:43:35.228Z,29.33
2022-12-31T13:46:30.963Z,40.85
2022-12-31T13:49:04.991Z,37.42
2022-12-31T13:51:50.227Z,28.05
2022-12-31T13:54:43.851Z,37.45
2022-12-31T13:57:39.224Z,32.03
2022-12-31T14:00:26.851Z,35.55
2022-12-31T14:03:16.763Z,30.58
2022-12-31T14:05:52.976Z,29.40
2022-12-31T14:08:20.559Z,31.92
2022-12-31T14:10:56.881Z,34.38
2022-12-31T14:14:02.007Z,28.02
2022-12-31T14:16:44.109Z,34.03
2022-12-31T14:19:26.023Z,32.70
2022-12-31T14:22:14.645Z,33.97
2022-12-31T14:24:46.248Z,36.03
2022-12-31T14:27:22.952Z,36.08
2022-12-31T14:29:58.907Z,40.50
2022-12-31T14:32:47.615Z,42.97
2022-12-31T14:35:32.320Z,44.05
2022-12-31T14:38:18.758Z,50.80
2022-12-31T14:41:05.800Z,37.97
2022-12-31T14:43:45.095Z,63.37
2022-12-31T14:46:18.560Z,67.05
2022-12-31T14:49:08.794Z,56.47
2022-12-31T14:51:37.417Z,56.42
2022-12-31T14:54:05.024Z,62.97
2022-12-31T14:56:42.712Z,55.90
2022-12-31T14:59:33.389Z,67.22
2022-12-31T15:02:31.642Z,67.35
2022-12-31T15:05:10.813Z,70.88
2022-12-31T15:07:48.066Z,53.70
2022-12-31T15:10:39.930Z,80.55
2022-12-31T15:13:15.339Z,80.28
2022-12-31T15:16:12.078Z,67.20
2022-12-31T15:18:54.644Z,66.13
2022-12-31T15:21:28.079Z,71.00
2022-12-31T15:23:57.020Z,86.22
2022-12-31T15:26:27.774Z,77.95
2022-12-31T15:29:05.121Z,76.82
2022-12-31T15:31:34.885Z,68.43
2022-12-31T15:34:23.057Z,72.97
2022-12-31T15:36:55.767Z,72.72
2022-12-31T15:39:32.234Z,75.05
2022-12-31T15:42:36.849Z,66.15
2022-12-31T15:44:59.153Z,62.72
2022-12-31T15:47:39.659Z,65.10
2022-12-31T15:50:15.903Z,67.05
2022-12-31T15:52:58.219Z,63.00
2022-12-31T15:55:49.331Z,70.75
2022-12-31T15:58:22.455Z,67.90
2022-12-31T16:01:01.466Z,70.80
2022-12-31T16:03:30.952Z,58.35
2022-12-31T16:06:08.161Z,67.20
2022-12-31T16:11:07.287Z,65.75
2022-12-31T16:13:40.515Z,70.68
2022-12-31T16:16:29.367Z,67.50
2022-12-31T16:18:57.990Z,72.55
2022-12-31T16:21:36.719Z,64.35
2022-12-31T16:24:29.710Z,63.00
2022-12-31T16:27:05.199Z,61.78
2022-12-31T16:29:41.503Z,72.22
2022-12-31T16:32:21.733Z,71.70
2022-12-31T16:34:49.446Z,42.30
2022-12-31T16:37:19.472Z,76.00
2022-12-31T16:39:59.023Z,65.30
2022-12-31T16:42:28.266Z,68.82
2022-12-31T16:44:57.295Z,56.83
2022-12-31T16:47:40.224Z,68.07
2022-12-31T16:50:20.316Z,58.80
2022-12-31T16:52:51.423Z,69.13
2022-12-31T16:55:26.027Z,58.58
2022-12-31T16:58:13.909Z,67.07
2022-12-31T17:00:42.930Z,59.97
2022-12-31T17:03:19.565Z,67.22
2022-12-31T17:06:12.352Z,59.92
2022-12-31T17:08:59.521Z,54.35
2022-12-31T17:11:33.053Z,81.82
2022-12-31T17:14:12.903Z,63.60
2022-12-31T17:17:02.597Z,55.92
2022-12-31T17:19:42.332Z,75.55
2022-12-31T17:22:32.957Z,50.22
2022-12-31T17:25:08.679Z,67.18
2022-12-31T17:27:36.921Z,69.32
2022-12-31T17:32:49.987Z,69.22
2022-12-31T17:35:29.849Z,59.75
2022-12-31T17:38:22.521Z,57.05
2022-12-31T17:41:14.002Z,59.50
2022-12-31T17:43:42.492Z,60.05
2022-12-31T17:46:17.374Z,62.35
2022-12-31T17:48:49.779Z,61.83
2022-12-31T17:51:18.896Z,59.15
2022-12-31T17:53:52.620Z,52.42
2022-12-31T17:56:20.520Z,53.15
2022-12-31T17:58:51.434Z,60.53
2022-12-31T18:01:22.617Z,66.35
2022-12-31T18:03:50.302Z,70.15
2022-12-31T18:06:19.587Z,72.78
2022-12-31T18:08:47.455Z,66.53
2022-12-31T18:11:23.151Z,63.45
2022-12-31T18:13:51.115Z,64.80
2022-12-31T18:16:18.663Z,71.95
2022-12-31T18:18:46.198Z,68.43
2022-12-31T18:21:26.998Z,59.63
2022-12-31T18:26:24.747Z,73.53
2022-12-31T18:28:52.716Z,84.82
2022-12-31T18:31:24.244Z,77.35
2022-12-31T18:33:53.452Z,43.55
2022-12-31T18:36:22.109Z,57.40
2022-12-31T18:38:49.646Z,72.75
2022-12-31T18:41:30.498Z,62.38
2022-12-31T18:44:18.293Z,68.30
2022-12-31T18:46:45.779Z,75.78
2022-12-31T18:49:13.188Z,65.35
2022-12-31T18:51:40.583Z,60.83
2022-12-31T18:54:11.149Z,65.87
2022-12-31T18:56:43.269Z,78.57
2022-12-31T18:59:14.101Z,75.35
2022-12-31T19:01:41.743Z,76.00
2022-12-31T19:04:26.966Z,62.83
2022-12-31T19:06:55.270Z,86.68
2022-12-31T19:09:44.492Z,82.68
2022-12-31T19:12:16.409Z,69.40
2022-12-31T19:14:45.448Z,66.72
2022-12-31T19:17:12.929Z,64.78
2022-12-31T19:19:40.444Z,81.22
2022-12-31T19:22:14.657Z,68.75
2022-12-31T19:24:45.198Z,76.85
2022-12-31T19:27:12.986Z,79.32
2022-12-31T19:29:40.572Z,71.00
2022-12-31T19:32:08.187Z,63.10
2022-12-31T19:34:35.719Z,58.85
2022-12-31T19:37:03.304Z,54.88
2022-12-31T19:39:30.764Z,52.78
2022-12-31T19:41:59.339Z,67.60
2022-12-31T19:44:27.213Z,64.90
2022-12-31T19:46:54.724Z,64.30
2022-12-31T19:49:22.251Z,62.55
2022-12-31T19:51:49.797Z,58.78
2022-12-31T19:54:17.452Z,52.47
2022-12-31T19:56:44.853Z,65.05
2022-12-31T19:59:12.245Z,56.63
2022-12-31T20:01:39.868Z,63.97
2022-12-31T20:04:07.381Z,70.95
2022-12-31T20:06:34.803Z,58.40
2022-12-31T20:09:03.278Z,59.67
2022-12-31T20:11:30.791Z,60.03
2022-12-31T20:13:58.354Z,61.03
2022-12-31T20:16:31.740Z,52.13
2022-12-31T20:18:59.466Z,58.13
2022-12-31T20:21:28.733Z,62.53
2022-12-31T20:23:57.502Z,56.80
2022-12-31T20:26:25.941Z,59.42
2022-12-31T20:28:53.720Z,55.35
2022-12-31T20:31:25.133Z,45.22
2022-12-31T20:33:56.899Z,54.67
2022-12-31T20:36:25.744Z,45.53
2022-12-31T20:38:53.203Z,52.53
2022-12-31T20:41:22.469Z,56.58
2022-12-31T20:43:50.431Z,55.20
2022-12-31T20:46:23.517Z,52.20
2022-12-31T20:48:54.977Z,50.63
2022-12-31T20:51:23.445Z,50.42
2022-12-31T20:53:57.397Z,52.55
2022-12-31T20:56:26.737Z,64.38
2022-12-31T20:58:54.381Z,59.00
2022-12-31T21:01:22.485Z,48.47
2022-12-31T21:04:05.061Z,49.78
2022-12-31T21:06:34.722Z,48.42
2022-12-31T21:09:03.872Z,42.83
2022-12-31T21:11:50.423Z,53.45
2022-12-31T21:14:18.049Z,48.42
2022-12-31T21:16:45.584Z,39.38
2022-12-31T21:19:13.024Z,45.83
2022-12-31T21:21:40.483Z,40.83
2022-12-31T21:24:08.433Z,36.88
2022-12-31T21:26:36.019Z,33.83
2022-12-31T21:29:03.688Z,35.92
2022-12-31T21:31:31.446Z,35.33
2022-12-31T21:33:59.150Z,33.00
2022-12-31T21:36:26.595Z,42.63
2022-12-31T21:38:54.284Z,39.13
2022-12-31T21:41:40.500Z,38.10
2022-12-31T21:44:08.089Z,39.38
2022-12-31T21:46:35.717Z,34.67
2022-12-31T21:49:04.103Z,24.60
2022-12-31T21:51:31.712Z,29.55
2022-12-31T21:53:59.210Z,35.10
2022-12-31T21:56:26.740Z,37.75
2022-12-31T21:59:15.700Z,29.65
2022-12-31T22:02:02.313Z,27.48
2022-12-31T22:07:17.626Z,26.15
2022-12-31T22:09:45.113Z,26.35
2022-12-31T22:12:12.526Z,25.40
2022-12-31T22:14:39.928Z,32.60
2022-12-31T22:17:27.360Z,27.77
2022-12-31T22:22:44.132Z,29.65
2022-12-31T22:25:13.610Z,36.75
2022-12-31T22:27:53.047Z,21.25
2022-12-31T22:30:35.714Z,28.02
2022-12-31T22:33:03.329Z,23.33
2022-12-31T22:35:34.021Z,23.65
2022-12-31T22:38:06.649Z,24.83
2022-12-31T22:40:39.291Z,26.83
2022-12-31T22:43:06.757Z,15.35
2022-12-31T22:45:34.253Z,17.75
2022-12-31T22:48:01.747Z,19.02
2022-12-31T22:50:29.208Z,17.55
2022-12-31T22:52:56.654Z,22.67
2022-12-31T22:55:24.073Z,18.20
2022-12-31T22:57:51.555Z,12.93
2022-12-31T23:00:18.965Z,15.55
2022-12-31T23:02:46.558Z,15.70
2022-12-31T23:05:15.868Z,16.10
2022-12-31T23:07:43.913Z,18.05
2022-12-31T23:10:29.895Z,13.02
2022-12-31T23:12:58.820Z,19.52
2022-12-31T23:15:44.723Z,15.70
2022-12-31T23:18:30.869Z,16.80
2022-12-31T23:21:17.152Z,14.77
2022-12-31T23:23:44.550Z,17.13
2022-12-31T23:26:11.999Z,19.23
2022-12-31T23:28:41.780Z,21.27
2022-12-31T23:31:09.317Z,18.13
2022-12-31T23:33:36.851Z,18.90
2022-12-31T23:36:06.117Z,19.77
2022-12-31T23:38:33.626Z,14.25
2022-12-31T23:41:01.214Z,15.48
2022-12-31T23:43:28.692Z,12.45
2022-12-31T23:45:56.105Z,13.48
2022-12-31T23:48:23.507Z,21.23
2022-12-31T23:50:53.817Z,13.90
2022-12-31T23:53:23.349Z,13.82
2022-12-31T23:55:51.783Z,21.83
2022-12-31T23:58:19.534Z,15.18
